createdAt,value
2022-07-25T00:01:20.641Z,99569.00
2022-07-25T00:03:49.263Z,99572.00
2022-07-25T00:06:17.664Z,99575.00
2022-07-25T00:08:46.144Z,99568.00
2022-07-25T00:11:14.400Z,99574.00
2022-07-25T00:13:42.406Z,99567.00
2022-07-25T00:16:10.401Z,99566.00
2022-07-25T00:18:39.747Z,99526.00
2022-07-25T00:21:07.813Z,99565.00
2022-07-25T00:23:35.798Z,99564.00
2022-07-25T00:26:03.788Z,99555.00
2022-07-25T00:28:31.768Z,99563.00
2022-07-25T00:30:59.821Z,99554.00
2022-07-25T00:33:27.819Z,99548.00
2022-07-25T00:35:57.127Z,99541.00
2022-07-25T00:38:25.092Z,99552.00
2022-07-25T00:40:53.513Z,99548.00
2022-07-25T00:43:23.648Z,99550.00
2022-07-25T00:45:51.700Z,99541.00
2022-07-25T00:48:19.722Z,99544.00
2022-07-25T00:50:47.751Z,99533.00
2022-07-25T00:53:17.316Z,99527.00
2022-07-25T00:55:45.798Z,99531.00
2022-07-25T00:58:14.403Z,99520.00
2022-07-25T01:00:42.716Z,99526.00
2022-07-25T01:03:10.850Z,99516.00
2022-07-25T01:05:39.029Z,99520.00
2022-07-25T01:08:08.248Z,99522.00
2022-07-25T01:10:38.665Z,99514.00
2022-07-25T01:13:07.256Z,99524.00
2022-07-25T01:15:35.430Z,99522.00
2022-07-25T01:18:03.484Z,99515.00
2022-07-25T01:20:34.119Z,99507.00
2022-07-25T01:23:02.668Z,99499.00
2022-07-25T01:25:30.707Z,99504.00
2022-07-25T01:27:58.772Z,99510.00
2022-07-25T01:30:27.363Z,99508.00
2022-07-25T01:32:55.407Z,99494.00
2022-07-25T01:35:23.578Z,99498.00
2022-07-25T01:37:53.205Z,99493.00
2022-07-25T01:40:21.329Z,99497.00
2022-07-25T01:42:49.323Z,99493.00
2022-07-25T01:45:17.319Z,99492.00
2022-07-25T01:47:45.226Z,99487.00
2022-07-25T01:50:13.233Z,99494.00
2022-07-25T01:52:41.234Z,99482.00
2022-07-25T01:55:11.645Z,99475.00
2022-07-25T01:57:41.104Z,99477.00
2022-07-25T02:00:19.202Z,99481.00
2022-07-25T02:02:47.901Z,99474.00
2022-07-25T02:05:16.883Z,99466.00
2022-07-25T02:07:44.846Z,99468.00
2022-07-25T02:10:14.167Z,99463.00
2022-07-25T02:12:42.146Z,99469.00
2022-07-25T02:15:11.134Z,99463.00
2022-07-25T02:17:39.296Z,99463.00
2022-07-25T02:20:08.709Z,99454.00
2022-07-25T02:22:36.696Z,99456.00
2022-07-25T02:25:05.300Z,99449.00
2022-07-25T02:27:34.583Z,99448.00
2022-07-25T02:30:02.558Z,99452.00
2022-07-25T02:32:30.505Z,99448.00
2022-07-25T02:34:59.146Z,99451.00
2022-07-25T02:37:27.090Z,99440.00
2022-07-25T02:39:55.038Z,99444.00
2022-07-25T02:42:23.016Z,99439.00
2022-07-25T02:44:52.366Z,99441.00
2022-07-25T02:47:20.356Z,99444.00
2022-07-25T02:49:48.322Z,99441.00
2022-07-25T02:52:16.282Z,99435.00
2022-07-25T02:54:44.302Z,99438.00
2022-07-25T02:57:12.362Z,99437.00
2022-07-25T02:59:40.344Z,99437.00
2022-07-25T03:02:09.627Z,99435.00
2022-07-25T03:04:37.715Z,99434.00
2022-07-25T03:07:05.812Z,99436.00
2022-07-25T03:09:33.806Z,99432.00
2022-07-25T03:12:01.940Z,99433.00
2022-07-25T03:14:30.203Z,99438.00
2022-07-25T03:16:58.297Z,99421.00
2022-07-25T03:19:27.745Z,99428.00
2022-07-25T03:21:55.777Z,99425.00
2022-07-25T03:24:23.858Z,99419.00
2022-07-25T03:26:51.853Z,99422.00
2022-07-25T03:29:19.767Z,99408.00
2022-07-25T03:31:47.801Z,99411.00
2022-07-25T03:34:15.856Z,99406.00
2022-07-25T03:36:45.166Z,99399.00
2022-07-25T03:39:14.483Z,99401.00
2022-07-25T03:41:42.586Z,99398.00
2022-07-25T03:44:10.825Z,99403.00
2022-07-25T03:46:38.945Z,99403.00
2022-07-25T03:49:07.173Z,99391.00
2022-07-25T03:51:35.378Z,99375.00
2022-07-25T03:54:06.375Z,99396.00
2022-07-25T03:56:43.907Z,99390.00
2022-07-25T03:59:15.268Z,99390.00
2022-07-25T04:01:44.890Z,99383.00
2022-07-25T04:04:13.714Z,99379.00
2022-07-25T04:06:42.929Z,99382.00
2022-07-25T04:09:13.489Z,99375.00
2022-07-25T04:11:41.515Z,99369.00
2022-07-25T04:14:09.718Z,99374.00
2022-07-25T04:16:38.008Z,99361.00
2022-07-25T04:19:08.690Z,99356.00
2022-07-25T04:21:36.824Z,99358.00
2022-07-25T04:24:05.457Z,99352.00
2022-07-25T04:26:34.929Z,99351.00
2022-07-25T04:29:03.729Z,99342.00
2022-07-25T04:31:31.893Z,99343.00
2022-07-25T04:34:00.319Z,99338.00
2022-07-25T04:36:28.424Z,99343.00
2022-07-25T04:38:56.419Z,99338.00
2022-07-25T04:41:24.420Z,99342.00
2022-07-25T04:43:53.759Z,99339.00
2022-07-25T04:46:23.107Z,99333.00
2022-07-25T04:48:52.378Z,99331.00
2022-07-25T04:51:20.397Z,99328.00
2022-07-25T04:53:48.486Z,99327.00
2022-07-25T04:56:16.892Z,99337.00
2022-07-25T04:58:45.060Z,99329.00
2022-07-25T05:01:14.413Z,99321.00
2022-07-25T05:03:49.788Z,99322.00
2022-07-25T05:06:18.923Z,99320.00
2022-07-25T05:08:47.996Z,99322.00
2022-07-25T05:11:16.012Z,99318.00
2022-07-25T05:13:44.063Z,99305.00
2022-07-25T05:16:12.104Z,99317.00
2022-07-25T05:18:41.536Z,99312.00
2022-07-25T05:21:12.443Z,99308.00
2022-07-25T05:23:40.495Z,99306.00
2022-07-25T05:26:08.655Z,99300.00
2022-07-25T05:28:36.885Z,99295.00
2022-07-25T05:31:05.459Z,99291.00
2022-07-25T05:33:34.806Z,99295.00
2022-07-25T05:36:05.231Z,99297.00
2022-07-25T05:38:33.490Z,99291.00
2022-07-25T05:41:01.597Z,99304.00
2022-07-25T05:43:29.727Z,99294.00
2022-07-25T05:46:02.848Z,99296.00
2022-07-25T05:48:30.897Z,99293.00
2022-07-25T05:51:00.014Z,99285.00
2022-07-25T05:53:29.529Z,99289.00
2022-07-25T05:55:57.580Z,99282.00
2022-07-25T05:58:29.637Z,99280.00
2022-07-25T06:00:58.769Z,99277.00
2022-07-25T06:03:27.293Z,99285.00
2022-07-25T06:05:56.862Z,99281.00
2022-07-25T06:08:25.053Z,99276.00
2022-07-25T06:10:54.353Z,99275.00
2022-07-25T06:13:23.591Z,99280.00
2022-07-25T06:15:51.880Z,99271.00
2022-07-25T06:18:19.975Z,99271.00
2022-07-25T06:20:48.793Z,99265.00
2022-07-25T06:23:17.410Z,99265.00
2022-07-25T06:25:50.527Z,99256.00
2022-07-25T06:28:19.961Z,99265.00
2022-07-25T06:30:49.416Z,99259.00
2022-07-25T06:33:17.430Z,99256.00
2022-07-25T06:35:45.471Z,99257.00
2022-07-25T06:38:13.522Z,99258.00
2022-07-25T06:40:41.626Z,99249.00
2022-07-25T06:43:09.661Z,99254.00
2022-07-25T06:45:39.007Z,99253.00
2022-07-25T06:48:07.339Z,99250.00
2022-07-25T06:50:35.315Z,99243.00
2022-07-25T06:53:03.424Z,99249.00
2022-07-25T06:55:31.474Z,99249.00
2022-07-25T06:57:59.499Z,99249.00
2022-07-25T07:00:27.945Z,99227.00
2022-07-25T07:03:01.350Z,99238.00
2022-07-25T07:05:34.051Z,99236.00
2022-07-25T07:08:02.421Z,99232.00
2022-07-25T07:10:30.633Z,99234.00
2022-07-25T07:13:08.100Z,99228.00
2022-07-25T07:15:37.809Z,99232.00
2022-07-25T07:18:08.087Z,99215.00
2022-07-25T07:20:36.371Z,99231.00
2022-07-25T07:23:04.425Z,99222.00
2022-07-25T07:25:34.303Z,99232.00
2022-07-25T07:28:02.561Z,99227.00
2022-07-25T07:30:58.552Z,99225.00
2022-07-25T07:33:20.369Z,99226.00
2022-07-25T07:35:48.419Z,99226.00
2022-07-25T07:38:18.045Z,99216.00
2022-07-25T07:40:46.323Z,99221.00
2022-07-25T07:43:14.512Z,99217.00
2022-07-25T07:45:44.082Z,99214.00
2022-07-25T07:48:12.398Z,99213.00
2022-07-25T07:50:41.866Z,99216.00
2022-07-25T07:53:09.979Z,99220.00
2022-07-25T07:55:46.621Z,99224.00
2022-07-25T07:58:17.547Z,99215.00
2022-07-25T08:00:47.467Z,99214.00
2022-07-25T08:03:20.466Z,99211.00
2022-07-25T08:05:51.780Z,99208.00
2022-07-25T08:08:19.892Z,99211.00
2022-07-25T08:10:51.198Z,99209.00
2022-07-25T08:13:23.646Z,99209.00
2022-07-25T08:15:54.911Z,99213.00
2022-07-25T08:18:23.007Z,99204.00
2022-07-25T08:20:53.178Z,99205.00
2022-07-25T08:23:21.317Z,99198.00
2022-07-25T08:25:50.032Z,99202.00
2022-07-25T08:28:18.181Z,99201.00
2022-07-25T08:30:46.325Z,99196.00
2022-07-25T08:33:16.675Z,99196.00
2022-07-25T08:35:51.791Z,99191.00
2022-07-25T08:38:22.520Z,99191.00
2022-07-25T08:40:51.003Z,99185.00
2022-07-25T08:43:20.504Z,99182.00
2022-07-25T08:45:51.375Z,99179.00
2022-07-25T08:48:22.440Z,99181.00
2022-07-25T08:50:51.765Z,99174.00
2022-07-25T08:53:39.167Z,99177.00
2022-07-25T08:56:16.093Z,99180.00
2022-07-25T08:58:47.235Z,99182.00
2022-07-25T09:01:15.535Z,99172.00
2022-07-25T09:03:44.351Z,99174.00
2022-07-25T09:06:19.038Z,99172.00
2022-07-25T09:08:57.813Z,99171.00
2022-07-25T09:11:32.488Z,99162.00
2022-07-25T09:14:04.890Z,99158.00
2022-07-25T09:16:35.697Z,99162.00
2022-07-25T09:19:13.206Z,99160.00
2022-07-25T09:21:44.437Z,99154.00
2022-07-25T09:24:17.907Z,99151.00
2022-07-25T09:26:49.110Z,99134.00
2022-07-25T09:29:20.119Z,99158.00
2022-07-25T09:31:48.621Z,99151.00
2022-07-25T09:34:31.213Z,99140.00
2022-07-25T09:36:59.782Z,99146.00
2022-07-25T09:39:43.436Z,99139.00
2022-07-25T09:42:23.124Z,99143.00
2022-07-25T09:45:11.265Z,99139.00
2022-07-25T09:47:54.601Z,99128.00
